sensor_id;sensor_type;location;lat;lon;timestamp;temperature;humidity
12434;DHT22;6281;49.038;8.372;2023-05-20T00:00:52;14.80;99.90
12434;DHT22;6281;49.038;8.372;2023-05-20T00:03:19;14.80;99.90
12434;DHT22;6281;49.038;8.372;2023-05-20T00:05:46;14.70;99.90
12434;DHT22;6281;49.038;8.372;2023-05-20T00:08:13;14.80;99.90
12434;DHT22;6281;49.038;8.372;2023-05-20T00:10:40;14.80;99.90
12434;DHT22;6281;49.038;8.372;2023-05-20T00:13:08;14.80;99.90
12434;DHT22;6281;49.038;8.372;2023-05-20T00:15:35;14.80;99.90
12434;DHT22;6281;49.038;8.372;2023-05-20T00:18:02;14.80;99.90
12434;DHT22;6281;49.038;8.372;2023-05-20T00:20:29;14.70;99.90
12434;DHT22;6281;49.038;8.372;2023-05-20T00:22:56;14.70;99.90
12434;DHT22;6281;49.038;8.372;2023-05-20T00:25:23;14.70;99.90
12434;DHT22;6281;49.038;8.372;2023-05-20T00:27:50;14.80;99.90
12434;DHT22;6281;49.038;8.372;2023-05-20T00:30:19;14.80;99.90
12434;DHT22;6281;49.038;8.372;2023-05-20T00:32:46;14.70;99.90
12434;DHT22;6281;49.038;8.372;2023-05-20T00:35:13;14.70;99.90
12434;DHT22;6281;49.038;8.372;2023-05-20T00:37:40;14.50;99.90
12434;DHT22;6281;49.038;8.372;2023-05-20T00:40:07;14.50;99.90
12434;DHT22;6281;49.038;8.372;2023-05-20T00:42:34;14.50;99.90
12434;DHT22;6281;49.038;8.372;2023-05-20T00:45:01;14.50;99.90
12434;DHT22;6281;49.038;8.372;2023-05-20T00:47:32;14.50;99.90
12434;DHT22;6281;49.038;8.372;2023-05-20T00:49:59;14.40;99.90
12434;DHT22;6281;49.038;8.372;2023-05-20T00:52:28;14.40;99.90
12434;DHT22;6281;49.038;8.372;2023-05-20T00:54:57;14.40;99.90
12434;DHT22;6281;49.038;8.372;2023-05-20T00:57:40;14.40;99.90
12434;DHT22;6281;49.038;8.372;2023-05-20T01:00:08;14.30;99.90
12434;DHT22;6281;49.038;8.372;2023-05-20T01:02:37;14.40;99.90
12434;DHT22;6281;49.038;8.372;2023-05-20T01:05:05;14.40;99.90
12434;DHT22;6281;49.038;8.372;2023-05-20T01:07:32;14.40;99.90
12434;DHT22;6281;49.038;8.372;2023-05-20T01:10:00;14.40;99.90
12434;DHT22;6281;49.038;8.372;2023-05-20T01:12:32;14.30;99.90
12434;DHT22;6281;49.038;8.372;2023-05-20T01:15:08;14.30;99.90
12434;DHT22;6281;49.038;8.372;2023-05-20T01:17:39;14.30;99.90
12434;DHT22;6281;49.038;8.372;2023-05-20T01:20:10;14.10;99.90
12434;DHT22;6281;49.038;8.372;2023-05-20T01:22:46;14.30;99.90
12434;DHT22;6281;49.038;8.372;2023-05-20T01:25:13;14.30;99.90
12434;DHT22;6281;49.038;8.372;2023-05-20T01:27:40;14.20;99.90
12434;DHT22;6281;49.038;8.372;2023-05-20T01:30:08;14.20;99.90
12434;DHT22;6281;49.038;8.372;2023-05-20T01:32:38;14.20;99.90
12434;DHT22;6281;49.038;8.372;2023-05-20T01:35:06;14.20;99.90
12434;DHT22;6281;49.038;8.372;2023-05-20T01:37:34;14.30;99.90
12434;DHT22;6281;49.038;8.372;2023-05-20T01:40:05;14.30;99.90
12434;DHT22;6281;49.038;8.372;2023-05-20T01:42:33;14.30;99.90
12434;DHT22;6281;49.038;8.372;2023-05-20T01:45:01;14.30;99.90
12434;DHT22;6281;49.038;8.372;2023-05-20T01:47:28;14.30;99.90
12434;DHT22;6281;49.038;8.372;2023-05-20T01:49:55;14.30;99.90
12434;DHT22;6281;49.038;8.372;2023-05-20T01:52:22;14.30;99.90
12434;DHT22;6281;49.038;8.372;2023-05-20T01:54:49;14.20;99.90
12434;DHT22;6281;49.038;8.372;2023-05-20T01:57:18;14.20;99.90
12434;DHT22;6281;49.038;8.372;2023-05-20T01:59:45;14.10;99.90
12434;DHT22;6281;49.038;8.372;2023-05-20T02:02:12;14.10;99.90
12434;DHT22;6281;49.038;8.372;2023-05-20T02:04:39;14.00;99.90
12434;DHT22;6281;49.038;8.372;2023-05-20T02:07:06;14.00;99.90
12434;DHT22;6281;49.038;8.372;2023-05-20T02:09:33;14.10;99.90
12434;DHT22;6281;49.038;8.372;2023-05-20T02:12:00;14.10;99.90
12434;DHT22;6281;49.038;8.372;2023-05-20T02:14:28;14.00;99.90
12434;DHT22;6281;49.038;8.372;2023-05-20T02:16:55;14.10;99.90
12434;DHT22;6281;49.038;8.372;2023-05-20T02:19:22;14.20;99.90
12434;DHT22;6281;49.038;8.372;2023-05-20T02:21:49;14.10;99.90
12434;DHT22;6281;49.038;8.372;2023-05-20T02:24:16;14.10;99.90
12434;DHT22;6281;49.038;8.372;2023-05-20T02:26:45;14.10;99.90
12434;DHT22;6281;49.038;8.372;2023-05-20T02:29:13;14.10;99.90
12434;DHT22;6281;49.038;8.372;2023-05-20T02:31:41;14.00;99.90
12434;DHT22;6281;49.038;8.372;2023-05-20T02:34:08;13.80;99.90
12434;DHT22;6281;49.038;8.372;2023-05-20T02:36:35;13.80;99.90
12434;DHT22;6281;49.038;8.372;2023-05-20T02:39:02;13.80;99.90
12434;DHT22;6281;49.038;8.372;2023-05-20T02:41:29;13.60;99.90
12434;DHT22;6281;49.038;8.372;2023-05-20T02:43:55;13.60;99.90
12434;DHT22;6281;49.038;8.372;2023-05-20T02:46:22;13.60;99.90
12434;DHT22;6281;49.038;8.372;2023-05-20T02:48:50;13.60;99.90
12434;DHT22;6281;49.038;8.372;2023-05-20T02:51:17;13.50;99.90
12434;DHT22;6281;49.038;8.372;2023-05-20T02:53:44;13.40;99.90
12434;DHT22;6281;49.038;8.372;2023-05-20T02:56:12;13.30;99.90
12434;DHT22;6281;49.038;8.372;2023-05-20T02:58:39;13.30;99.90
12434;DHT22;6281;49.038;8.372;2023-05-20T03:01:06;13.30;99.90
12434;DHT22;6281;49.038;8.372;2023-05-20T03:03:32;13.20;99.90
12434;DHT22;6281;49.038;8.372;2023-05-20T03:06:00;13.20;99.90
12434;DHT22;6281;49.038;8.372;2023-05-20T03:08:27;13.20;99.90
12434;DHT22;6281;49.038;8.372;2023-05-20T03:10:54;13.20;99.90
12434;DHT22;6281;49.038;8.372;2023-05-20T03:13:21;13.20;99.90
12434;DHT22;6281;49.038;8.372;2023-05-20T03:15:47;13.20;99.90
12434;DHT22;6281;49.038;8.372;2023-05-20T03:18:14;13.20;99.90
12434;DHT22;6281;49.038;8.372;2023-05-20T03:20:41;13.00;99.90
12434;DHT22;6281;49.038;8.372;2023-05-20T03:23:09;13.10;99.90
12434;DHT22;6281;49.038;8.372;2023-05-20T03:25:37;13.10;99.90
12434;DHT22;6281;49.038;8.372;2023-05-20T03:28:04;13.00;99.90
12434;DHT22;6281;49.038;8.372;2023-05-20T03:30:31;12.90;99.90
12434;DHT22;6281;49.038;8.372;2023-05-20T03:32:58;12.90;99.90
12434;DHT22;6281;49.038;8.372;2023-05-20T03:35:27;12.90;99.90
12434;DHT22;6281;49.038;8.372;2023-05-20T03:37:53;12.90;99.90
12434;DHT22;6281;49.038;8.372;2023-05-20T03:40:22;12.80;99.90
12434;DHT22;6281;49.038;8.372;2023-05-20T03:42:48;12.80;99.90
12434;DHT22;6281;49.038;8.372;2023-05-20T03:45:16;12.80;99.90
12434;DHT22;6281;49.038;8.372;2023-05-20T03:47:43;12.70;99.90
12434;DHT22;6281;49.038;8.372;2023-05-20T03:50:10;12.70;99.90
12434;DHT22;6281;49.038;8.372;2023-05-20T03:52:37;12.70;99.90
12434;DHT22;6281;49.038;8.372;2023-05-20T03:55:05;12.50;99.90
12434;DHT22;6281;49.038;8.372;2023-05-20T03:57:34;12.60;99.90
12434;DHT22;6281;49.038;8.372;2023-05-20T04:00:00;12.70;99.90
12434;DHT22;6281;49.038;8.372;2023-05-20T04:02:34;12.70;99.90
12434;DHT22;6281;49.038;8.372;2023-05-20T04:05:01;12.70;99.90
12434;DHT22;6281;49.038;8.372;2023-05-20T04:07:27;12.70;99.90
12434;DHT22;6281;49.038;8.372;2023-05-20T04:09:55;12.60;99.90
12434;DHT22;6281;49.038;8.372;2023-05-20T04:12:23;12.70;99.90
12434;DHT22;6281;49.038;8.372;2023-05-20T04:14:56;12.80;99.90
12434;DHT22;6281;49.038;8.372;2023-05-20T04:17:23;12.80;99.90
12434;DHT22;6281;49.038;8.372;2023-05-20T04:19:50;12.70;99.90
12434;DHT22;6281;49.038;8.372;2023-05-20T04:22:17;12.60;99.90
12434;DHT22;6281;49.038;8.372;2023-05-20T04:24:44;12.70;99.90
12434;DHT22;6281;49.038;8.372;2023-05-20T04:27:11;12.80;99.90
12434;DHT22;6281;49.038;8.372;2023-05-20T04:29:38;12.70;99.90
12434;DHT22;6281;49.038;8.372;2023-05-20T04:32:07;12.60;99.90
12434;DHT22;6281;49.038;8.372;2023-05-20T04:34:35;12.70;99.90
12434;DHT22;6281;49.038;8.372;2023-05-20T04:37:02;12.70;99.90
12434;DHT22;6281;49.038;8.372;2023-05-20T04:39:29;12.80;99.90
12434;DHT22;6281;49.038;8.372;2023-05-20T04:41:55;12.90;99.90
12434;DHT22;6281;49.038;8.372;2023-05-20T04:44:22;13.00;99.90
12434;DHT22;6281;49.038;8.372;2023-05-20T04:46:50;13.00;99.90
12434;DHT22;6281;49.038;8.372;2023-05-20T04:49:19;13.00;99.90
12434;DHT22;6281;49.038;8.372;2023-05-20T04:51:46;13.00;99.90
12434;DHT22;6281;49.038;8.372;2023-05-20T04:54:14;13.00;99.90
12434;DHT22;6281;49.038;8.372;2023-05-20T04:56:42;13.10;99.90
12434;DHT22;6281;49.038;8.372;2023-05-20T04:59:09;13.10;99.90
12434;DHT22;6281;49.038;8.372;2023-05-20T05:01:36;13.20;99.90
12434;DHT22;6281;49.038;8.372;2023-05-20T05:04:03;13.30;99.90
12434;DHT22;6281;49.038;8.372;2023-05-20T05:06:31;13.10;99.90
12434;DHT22;6281;49.038;8.372;2023-05-20T05:08:58;13.10;99.90
12434;DHT22;6281;49.038;8.372;2023-05-20T05:11:25;13.20;99.90
12434;DHT22;6281;49.038;8.372;2023-05-20T05:13:53;13.30;99.90
12434;DHT22;6281;49.038;8.372;2023-05-20T05:16:21;13.40;99.90
12434;DHT22;6281;49.038;8.372;2023-05-20T05:18:48;13.50;99.90
12434;DHT22;6281;49.038;8.372;2023-05-20T05:21:15;13.50;99.90
12434;DHT22;6281;49.038;8.372;2023-05-20T05:23:43;13.50;99.90
12434;DHT22;6281;49.038;8.372;2023-05-20T05:26:10;13.50;99.90
12434;DHT22;6281;49.038;8.372;2023-05-20T05:28:37;13.60;99.90
12434;DHT22;6281;49.038;8.372;2023-05-20T05:31:04;13.70;99.90
12434;DHT22;6281;49.038;8.372;2023-05-20T05:33:31;13.60;99.90
12434;DHT22;6281;49.038;8.372;2023-05-20T05:35:58;13.70;99.90
12434;DHT22;6281;49.038;8.372;2023-05-20T05:38:26;13.80;99.90
12434;DHT22;6281;49.038;8.372;2023-05-20T05:40:55;13.60;99.90
12434;DHT22;6281;49.038;8.372;2023-05-20T05:43:22;13.70;99.90
12434;DHT22;6281;49.038;8.372;2023-05-20T05:45:49;13.80;99.90
12434;DHT22;6281;49.038;8.372;2023-05-20T05:48:15;13.90;99.90
12434;DHT22;6281;49.038;8.372;2023-05-20T05:50:43;13.90;99.90
12434;DHT22;6281;49.038;8.372;2023-05-20T05:53:11;13.90;99.90
12434;DHT22;6281;49.038;8.372;2023-05-20T05:55:38;14.00;99.90
12434;DHT22;6281;49.038;8.372;2023-05-20T05:58:06;14.20;99.90
12434;DHT22;6281;49.038;8.372;2023-05-20T06:00:33;14.20;99.90
12434;DHT22;6281;49.038;8.372;2023-05-20T06:03:00;14.10;99.90
12434;DHT22;6281;49.038;8.372;2023-05-20T06:05:27;14.00;99.90
12434;DHT22;6281;49.038;8.372;2023-05-20T06:07:54;14.10;99.90
12434;DHT22;6281;49.038;8.372;2023-05-20T06:10:21;14.20;99.90
12434;DHT22;6281;49.038;8.372;2023-05-20T06:12:47;14.30;99.90
12434;DHT22;6281;49.038;8.372;2023-05-20T06:15:16;14.40;99.90
12434;DHT22;6281;49.038;8.372;2023-05-20T06:17:43;14.40;99.90
12434;DHT22;6281;49.038;8.372;2023-05-20T06:20:11;14.60;99.90
12434;DHT22;6281;49.038;8.372;2023-05-20T06:22:38;14.70;99.90
12434;DHT22;6281;49.038;8.372;2023-05-20T06:25:06;14.50;99.90
12434;DHT22;6281;49.038;8.372;2023-05-20T06:27:33;14.80;99.90
12434;DHT22;6281;49.038;8.372;2023-05-20T06:30:00;14.60;99.90
12434;DHT22;6281;49.038;8.372;2023-05-20T06:32:29;14.70;99.90
12434;DHT22;6281;49.038;8.372;2023-05-20T06:34:56;14.90;99.90
12434;DHT22;6281;49.038;8.372;2023-05-20T06:37:23;15.10;99.90
12434;DHT22;6281;49.038;8.372;2023-05-20T06:39:51;15.30;99.90
12434;DHT22;6281;49.038;8.372;2023-05-20T06:42:18;15.20;99.90
12434;DHT22;6281;49.038;8.372;2023-05-20T06:44:46;15.40;99.90
12434;DHT22;6281;49.038;8.372;2023-05-20T06:47:14;15.50;99.90
12434;DHT22;6281;49.038;8.372;2023-05-20T06:49:43;15.40;99.90
12434;DHT22;6281;49.038;8.372;2023-05-20T06:52:10;15.30;99.90
12434;DHT22;6281;49.038;8.372;2023-05-20T06:54:37;15.60;99.90
12434;DHT22;6281;49.038;8.372;2023-05-20T06:57:06;15.70;99.90
12434;DHT22;6281;49.038;8.372;2023-05-20T06:59:33;15.90;99.90
12434;DHT22;6281;49.038;8.372;2023-05-20T07:02:00;15.80;99.90
12434;DHT22;6281;49.038;8.372;2023-05-20T07:04:27;16.00;99.90
12434;DHT22;6281;49.038;8.372;2023-05-20T07:06:55;15.90;99.90
12434;DHT22;6281;49.038;8.372;2023-05-20T07:09:22;16.30;99.90
12434;DHT22;6281;49.038;8.372;2023-05-20T07:11:49;16.00;99.90
12434;DHT22;6281;49.038;8.372;2023-05-20T07:14:16;16.00;99.90
12434;DHT22;6281;49.038;8.372;2023-05-20T07:16:43;16.40;99.90
12434;DHT22;6281;49.038;8.372;2023-05-20T07:19:10;16.20;99.90
12434;DHT22;6281;49.038;8.372;2023-05-20T07:21:37;16.30;99.90
12434;DHT22;6281;49.038;8.372;2023-05-20T07:24:05;16.30;99.90
12434;DHT22;6281;49.038;8.372;2023-05-20T07:26:32;16.20;99.90
12434;DHT22;6281;49.038;8.372;2023-05-20T07:29:01;16.40;99.90
12434;DHT22;6281;49.038;8.372;2023-05-20T07:31:28;16.50;99.90
12434;DHT22;6281;49.038;8.372;2023-05-20T07:33:55;16.40;99.90
12434;DHT22;6281;49.038;8.372;2023-05-20T07:36:22;16.30;99.90
12434;DHT22;6281;49.038;8.372;2023-05-20T07:38:49;16.50;99.90
12434;DHT22;6281;49.038;8.372;2023-05-20T07:41:17;16.90;99.90
12434;DHT22;6281;49.038;8.372;2023-05-20T07:43:44;17.10;99.90
12434;DHT22;6281;49.038;8.372;2023-05-20T07:46:11;17.00;99.90
12434;DHT22;6281;49.038;8.372;2023-05-20T07:48:38;17.00;99.90
12434;DHT22;6281;49.038;8.372;2023-05-20T07:51:05;17.00;99.90
12434;DHT22;6281;49.038;8.372;2023-05-20T07:53:32;16.80;99.90
12434;DHT22;6281;49.038;8.372;2023-05-20T07:55:59;17.00;99.90
12434;DHT22;6281;49.038;8.372;2023-05-20T07:58:28;17.30;99.90
12434;DHT22;6281;49.038;8.372;2023-05-20T08:00:56;17.40;99.90
12434;DHT22;6281;49.038;8.372;2023-05-20T08:03:32;17.30;99.90
12434;DHT22;6281;49.038;8.372;2023-05-20T08:05:59;17.20;99.90
12434;DHT22;6281;49.038;8.372;2023-05-20T08:08:26;17.60;99.90
12434;DHT22;6281;49.038;8.372;2023-05-20T08:10:55;17.90;99.90
12434;DHT22;6281;49.038;8.372;2023-05-20T08:13:22;18.00;99.90
12434;DHT22;6281;49.038;8.372;2023-05-20T08:15:51;17.70;99.90
12434;DHT22;6281;49.038;8.372;2023-05-20T08:18:19;17.90;99.90
12434;DHT22;6281;49.038;8.372;2023-05-20T08:20:46;17.80;99.90
12434;DHT22;6281;49.038;8.372;2023-05-20T08:23:13;17.60;99.90
12434;DHT22;6281;49.038;8.372;2023-05-20T08:25:40;17.90;99.90
12434;DHT22;6281;49.038;8.372;2023-05-20T08:28:13;17.90;99.90
12434;DHT22;6281;49.038;8.372;2023-05-20T08:30:43;18.10;99.90
12434;DHT22;6281;49.038;8.372;2023-05-20T08:33:14;18.10;99.90
12434;DHT22;6281;49.038;8.372;2023-05-20T08:35:41;18.70;99.90
12434;DHT22;6281;49.038;8.372;2023-05-20T08:38:07;18.80;99.90
12434;DHT22;6281;49.038;8.372;2023-05-20T08:40:34;18.90;99.90
12434;DHT22;6281;49.038;8.372;2023-05-20T08:43:01;19.10;99.90
12434;DHT22;6281;49.038;8.372;2023-05-20T08:45:31;19.40;99.90
12434;DHT22;6281;49.038;8.372;2023-05-20T08:47:59;19.60;99.90
12434;DHT22;6281;49.038;8.372;2023-05-20T08:50:27;19.80;99.90
12434;DHT22;6281;49.038;8.372;2023-05-20T08:52:54;19.90;99.90
12434;DHT22;6281;49.038;8.372;2023-05-20T08:55:24;19.80;99.90
12434;DHT22;6281;49.038;8.372;2023-05-20T08:57:52;19.50;99.90
12434;DHT22;6281;49.038;8.372;2023-05-20T09:00:20;19.60;99.90
12434;DHT22;6281;49.038;8.372;2023-05-20T09:02:51;19.70;99.90
12434;DHT22;6281;49.038;8.372;2023-05-20T09:05:19;19.80;99.90
12434;DHT22;6281;49.038;8.372;2023-05-20T09:07:48;20.00;99.90
12434;DHT22;6281;49.038;8.372;2023-05-20T09:10:15;20.10;99.90
12434;DHT22;6281;49.038;8.372;2023-05-20T09:12:42;20.60;99.90
12434;DHT22;6281;49.038;8.372;2023-05-20T09:15:09;20.80;99.90
12434;DHT22;6281;49.038;8.372;2023-05-20T09:17:37;21.00;99.90
12434;DHT22;6281;49.038;8.372;2023-05-20T09:20:06;20.90;99.90
12434;DHT22;6281;49.038;8.372;2023-05-20T09:22:34;20.90;99.90
12434;DHT22;6281;49.038;8.372;2023-05-20T09:25:04;21.40;99.90
12434;DHT22;6281;49.038;8.372;2023-05-20T09:27:32;21.60;99.90
12434;DHT22;6281;49.038;8.372;2023-05-20T09:29:59;21.40;99.90
12434;DHT22;6281;49.038;8.372;2023-05-20T09:32:26;21.30;99.90
12434;DHT22;6281;49.038;8.372;2023-05-20T09:34:53;21.40;99.90
12434;DHT22;6281;49.038;8.372;2023-05-20T09:37:20;21.40;99.90
12434;DHT22;6281;49.038;8.372;2023-05-20T09:39:54;21.40;99.90
12434;DHT22;6281;49.038;8.372;2023-05-20T09:42:25;21.30;99.90
12434;DHT22;6281;49.038;8.372;2023-05-20T09:44:54;21.50;99.90
12434;DHT22;6281;49.038;8.372;2023-05-20T09:47:22;21.00;99.90
12434;DHT22;6281;49.038;8.372;2023-05-20T09:49:51;20.60;99.90
12434;DHT22;6281;49.038;8.372;2023-05-20T09:52:18;20.60;99.90
12434;DHT22;6281;49.038;8.372;2023-05-20T09:54:47;20.80;99.90
12434;DHT22;6281;49.038;8.372;2023-05-20T09:57:15;21.00;99.90
12434;DHT22;6281;49.038;8.372;2023-05-20T09:59:43;21.20;99.90
12434;DHT22;6281;49.038;8.372;2023-05-20T10:02:11;21.10;99.90
12434;DHT22;6281;49.038;8.372;2023-05-20T10:04:45;21.20;99.90
12434;DHT22;6281;49.038;8.372;2023-05-20T10:07:28;21.80;99.90
12434;DHT22;6281;49.038;8.372;2023-05-20T10:10:05;22.80;99.90
12434;DHT22;6281;49.038;8.372;2023-05-20T10:12:40;21.50;99.90
12434;DHT22;6281;49.038;8.372;2023-05-20T10:15:17;20.90;99.90
12434;DHT22;6281;49.038;8.372;2023-05-20T10:17:52;21.90;99.90
12434;DHT22;6281;49.038;8.372;2023-05-20T10:20:21;22.00;99.90
12434;DHT22;6281;49.038;8.372;2023-05-20T10:22:54;23.90;99.90
12434;DHT22;6281;49.038;8.372;2023-05-20T10:25:26;26.40;99.90
12434;DHT22;6281;49.038;8.372;2023-05-20T10:28:03;24.80;99.90
12434;DHT22;6281;49.038;8.372;2023-05-20T10:30:33;22.90;99.90
12434;DHT22;6281;49.038;8.372;2023-05-20T10:33:04;23.80;99.90
12434;DHT22;6281;49.038;8.372;2023-05-20T10:35:32;24.80;99.90
12434;DHT22;6281;49.038;8.372;2023-05-20T10:38:09;25.70;99.90
12434;DHT22;6281;49.038;8.372;2023-05-20T10:40:37;25.30;99.90
12434;DHT22;6281;49.038;8.372;2023-05-20T10:43:10;24.20;99.90
12434;DHT22;6281;49.038;8.372;2023-05-20T10:45:48;22.80;99.90
12434;DHT22;6281;49.038;8.372;2023-05-20T10:48:26;22.30;99.90
12434;DHT22;6281;49.038;8.372;2023-05-20T10:51:13;22.00;99.90
12434;DHT22;6281;49.038;8.372;2023-05-20T10:53:41;24.20;99.90
12434;DHT22;6281;49.038;8.372;2023-05-20T10:56:16;25.10;99.90
12434;DHT22;6281;49.038;8.372;2023-05-20T10:58:43;24.20;99.90
12434;DHT22;6281;49.038;8.372;2023-05-20T11:01:11;23.50;99.90
12434;DHT22;6281;49.038;8.372;2023-05-20T11:03:39;22.60;99.90
12434;DHT22;6281;49.038;8.372;2023-05-20T11:06:13;22.30;99.90
12434;DHT22;6281;49.038;8.372;2023-05-20T11:08:40;23.40;99.90
12434;DHT22;6281;49.038;8.372;2023-05-20T11:11:07;23.70;99.90
12434;DHT22;6281;49.038;8.372;2023-05-20T11:13:34;23.50;99.90
12434;DHT22;6281;49.038;8.372;2023-05-20T11:16:01;24.00;99.90
12434;DHT22;6281;49.038;8.372;2023-05-20T11:18:30;23.60;99.90
12434;DHT22;6281;49.038;8.372;2023-05-20T11:20:58;24.60;99.90
12434;DHT22;6281;49.038;8.372;2023-05-20T11:23:26;24.60;99.90
12434;DHT22;6281;49.038;8.372;2023-05-20T11:25:54;23.80;99.90
12434;DHT22;6281;49.038;8.372;2023-05-20T11:28:22;23.30;99.90
12434;DHT22;6281;49.038;8.372;2023-05-20T11:30:52;22.90;99.90
12434;DHT22;6281;49.038;8.372;2023-05-20T11:33:19;22.90;99.90
12434;DHT22;6281;49.038;8.372;2023-05-20T11:35:50;23.70;99.90
12434;DHT22;6281;49.038;8.372;2023-05-20T11:38:18;23.60;99.90
12434;DHT22;6281;49.038;8.372;2023-05-20T11:40:50;22.90;99.90
12434;DHT22;6281;49.038;8.372;2023-05-20T11:43:18;23.30;99.90
12434;DHT22;6281;49.038;8.372;2023-05-20T11:45:47;23.20;99.90
12434;DHT22;6281;49.038;8.372;2023-05-20T11:48:18;23.20;99.90
12434;DHT22;6281;49.038;8.372;2023-05-20T11:50:47;23.20;99.90
12434;DHT22;6281;49.038;8.372;2023-05-20T11:53:45;22.80;99.90
12434;DHT22;6281;49.038;8.372;2023-05-20T11:56:13;22.70;99.90
12434;DHT22;6281;49.038;8.372;2023-05-20T11:58:43;22.90;99.90
12434;DHT22;6281;49.038;8.372;2023-05-20T12:01:12;22.70;99.90
12434;DHT22;6281;49.038;8.372;2023-05-20T12:03:39;23.10;99.90
12434;DHT22;6281;49.038;8.372;2023-05-20T12:06:10;23.00;99.90
12434;DHT22;6281;49.038;8.372;2023-05-20T12:08:38;23.30;99.90
12434;DHT22;6281;49.038;8.372;2023-05-20T12:11:05;23.30;99.90
12434;DHT22;6281;49.038;8.372;2023-05-20T12:13:32;23.50;99.90
12434;DHT22;6281;49.038;8.372;2023-05-20T12:15:59;23.70;99.90
12434;DHT22;6281;49.038;8.372;2023-05-20T12:18:26;23.20;99.90
12434;DHT22;6281;49.038;8.372;2023-05-20T12:20:53;22.80;99.90
12434;DHT22;6281;49.038;8.372;2023-05-20T12:23:21;22.80;99.90
12434;DHT22;6281;49.038;8.372;2023-05-20T12:25:48;22.80;99.90
12434;DHT22;6281;49.038;8.372;2023-05-20T12:28:15;22.90;99.90
12434;DHT22;6281;49.038;8.372;2023-05-20T12:30:42;22.80;99.90
12434;DHT22;6281;49.038;8.372;2023-05-20T12:33:09;23.80;99.90
12434;DHT22;6281;49.038;8.372;2023-05-20T12:35:37;24.00;99.90
12434;DHT22;6281;49.038;8.372;2023-05-20T12:38:04;25.30;99.90
12434;DHT22;6281;49.038;8.372;2023-05-20T12:40:33;25.40;99.90
12434;DHT22;6281;49.038;8.372;2023-05-20T12:43:01;24.70;99.90
12434;DHT22;6281;49.038;8.372;2023-05-20T12:45:28;24.20;99.90
12434;DHT22;6281;49.038;8.372;2023-05-20T12:47:56;23.90;99.90
12434;DHT22;6281;49.038;8.372;2023-05-20T12:50:26;24.10;99.90
12434;DHT22;6281;49.038;8.372;2023-05-20T12:52:53;24.40;99.90
12434;DHT22;6281;49.038;8.372;2023-05-20T12:55:20;24.20;99.90
12434;DHT22;6281;49.038;8.372;2023-05-20T12:57:54;24.60;99.90
12434;DHT22;6281;49.038;8.372;2023-05-20T13:00:26;24.70;99.90
12434;DHT22;6281;49.038;8.372;2023-05-20T13:03:19;24.30;99.90
12434;DHT22;6281;49.038;8.372;2023-05-20T13:05:59;24.80;99.90
12434;DHT22;6281;49.038;8.372;2023-05-20T13:08:26;25.50;99.90
12434;DHT22;6281;49.038;8.372;2023-05-20T13:10:53;25.10;99.90
12434;DHT22;6281;49.038;8.372;2023-05-20T13:13:22;24.50;99.90
12434;DHT22;6281;49.038;8.372;2023-05-20T13:15:50;24.50;99.90
12434;DHT22;6281;49.038;8.372;2023-05-20T13:18:17;24.60;99.90
12434;DHT22;6281;49.038;8.372;2023-05-20T13:20:44;24.60;99.90
12434;DHT22;6281;49.038;8.372;2023-05-20T13:23:11;24.20;99.90
12434;DHT22;6281;49.038;8.372;2023-05-20T13:25:38;24.50;99.90
12434;DHT22;6281;49.038;8.372;2023-05-20T13:28:05;24.50;99.90
12434;DHT22;6281;49.038;8.372;2023-05-20T13:30:34;25.20;99.90
12434;DHT22;6281;49.038;8.372;2023-05-20T13:33:01;25.90;99.90
12434;DHT22;6281;49.038;8.372;2023-05-20T13:35:27;25.70;99.90
12434;DHT22;6281;49.038;8.372;2023-05-20T13:37:54;25.80;99.90
12434;DHT22;6281;49.038;8.372;2023-05-20T13:40:21;25.40;99.90
12434;DHT22;6281;49.038;8.372;2023-05-20T13:42:53;25.30;99.90
12434;DHT22;6281;49.038;8.372;2023-05-20T13:45:20;25.00;99.90
12434;DHT22;6281;49.038;8.372;2023-05-20T13:47:49;25.00;99.90
12434;DHT22;6281;49.038;8.372;2023-05-20T13:50:16;25.20;99.90
12434;DHT22;6281;49.038;8.372;2023-05-20T13:52:43;25.20;99.90
12434;DHT22;6281;49.038;8.372;2023-05-20T13:55:10;24.80;99.90
12434;DHT22;6281;49.038;8.372;2023-05-20T13:57:38;24.80;99.90
12434;DHT22;6281;49.038;8.372;2023-05-20T14:00:06;24.80;99.90
12434;DHT22;6281;49.038;8.372;2023-05-20T14:02:33;25.10;99.90
12434;DHT22;6281;49.038;8.372;2023-05-20T14:05:06;25.30;99.90
12434;DHT22;6281;49.038;8.372;2023-05-20T14:07:34;26.20;99.90
12434;DHT22;6281;49.038;8.372;2023-05-20T14:10:03;25.50;99.90
12434;DHT22;6281;49.038;8.372;2023-05-20T14:12:37;25.10;99.90
12434;DHT22;6281;49.038;8.372;2023-05-20T14:15:05;24.80;99.90
12434;DHT22;6281;49.038;8.372;2023-05-20T14:17:32;24.90;99.90
12434;DHT22;6281;49.038;8.372;2023-05-20T14:19:59;24.50;99.90
12434;DHT22;6281;49.038;8.372;2023-05-20T14:22:27;24.60;99.90
12434;DHT22;6281;49.038;8.372;2023-05-20T14:24:54;24.10;99.90
12434;DHT22;6281;49.038;8.372;2023-05-20T14:27:21;24.20;99.90
12434;DHT22;6281;49.038;8.372;2023-05-20T14:29:48;24.50;99.90
12434;DHT22;6281;49.038;8.372;2023-05-20T14:32:15;24.30;99.90
12434;DHT22;6281;49.038;8.372;2023-05-20T14:34:42;24.10;99.90
12434;DHT22;6281;49.038;8.372;2023-05-20T14:37:09;24.20;99.90
12434;DHT22;6281;49.038;8.372;2023-05-20T14:39:38;24.30;99.90
12434;DHT22;6281;49.038;8.372;2023-05-20T14:42:05;24.30;99.90
12434;DHT22;6281;49.038;8.372;2023-05-20T14:44:32;24.30;99.90
12434;DHT22;6281;49.038;8.372;2023-05-20T14:46:59;24.40;99.90
12434;DHT22;6281;49.038;8.372;2023-05-20T14:49:25;24.60;99.90
12434;DHT22;6281;49.038;8.372;2023-05-20T14:51:52;24.40;99.90
12434;DHT22;6281;49.038;8.372;2023-05-20T14:54:19;24.50;99.90
12434;DHT22;6281;49.038;8.372;2023-05-20T14:56:50;24.50;99.90
12434;DHT22;6281;49.038;8.372;2023-05-20T14:59:17;25.00;99.90
12434;DHT22;6281;49.038;8.372;2023-05-20T15:01:44;25.50;99.90
12434;DHT22;6281;49.038;8.372;2023-05-20T15:04:11;25.20;99.90
12434;DHT22;6281;49.038;8.372;2023-05-20T15:06:38;25.00;99.90
12434;DHT22;6281;49.038;8.372;2023-05-20T15:09:06;24.70;99.90
12434;DHT22;6281;49.038;8.372;2023-05-20T15:11:33;24.40;99.90
12434;DHT22;6281;49.038;8.372;2023-05-20T15:14:01;24.20;99.90
12434;DHT22;6281;49.038;8.372;2023-05-20T15:16:28;24.20;99.90
12434;DHT22;6281;49.038;8.372;2023-05-20T15:18:55;24.40;99.90
12434;DHT22;6281;49.038;8.372;2023-05-20T15:21:22;24.40;99.90
12434;DHT22;6281;49.038;8.372;2023-05-20T15:23:49;24.50;99.90
12434;DHT22;6281;49.038;8.372;2023-05-20T15:26:15;24.50;99.90
12434;DHT22;6281;49.038;8.372;2023-05-20T15:28:42;24.80;99.90
12434;DHT22;6281;49.038;8.372;2023-05-20T15:31:11;24.60;99.90
12434;DHT22;6281;49.038;8.372;2023-05-20T15:33:38;24.20;99.90
12434;DHT22;6281;49.038;8.372;2023-05-20T15:36:05;24.60;99.90
12434;DHT22;6281;49.038;8.372;2023-05-20T15:38:32;24.60;99.90
12434;DHT22;6281;49.038;8.372;2023-05-20T15:40:59;24.50;99.90
12434;DHT22;6281;49.038;8.372;2023-05-20T15:43:26;24.90;99.90
12434;DHT22;6281;49.038;8.372;2023-05-20T15:45:53;24.70;99.90
12434;DHT22;6281;49.038;8.372;2023-05-20T15:48:22;24.50;99.90
12434;DHT22;6281;49.038;8.372;2023-05-20T15:50:49;24.50;99.90